Time;durP1;ratioP1;P1;durP2;ratioP2;P2;SDS_P1;SDS_P2;PMS_P1;PMS_P2;Temp;Humidity;BMP_temperature;BMP_pressure;BME280_temperature;BME280_humidity;BME280_pressure;Samples;Min_cycle;Max_cycle;Signal;HPM_P1;HPM_P2
2022/06/13 00:00:44;;;;;;;9.82;3.67;;;;;;;;;;5067112;28;20068;-63
2022/06/13 00:03:10;;;;;;;11.32;4.05;;;;;;;;;;5056540;28;20452;-63
2022/06/13 00:05:36;;;;;;;9.65;3.67;;;;;;;;;;5061928;28;20041;-63
2022/06/13 00:08:02;;;;;;;11.35;3.78;;;;;;;;;;5065072;28;20101;-62
2022/06/13 00:10:28;;;;;;;11.70;4.05;;;;;;;;;;5060615;28;20052;-63
2022/06/13 00:12:54;;;;;;;7.45;3.70;;;;;;;;;;5070177;28;20048;-62
2022/06/13 00:15:20;;;;;;;12.13;4.25;;;;;;;;;;5055029;28;20051;-62
2022/06/13 00:17:46;;;;;;;8.55;3.97;;;;;;;;;;5065090;28;20037;-62
2022/06/13 00:20:12;;;;;;;7.15;3.92;;;;;;;;;;5056865;28;20036;-62
2022/06/13 00:22:38;;;;;;;13.65;4.15;;;;;;;;;;5069475;28;20074;-62
2022/06/13 00:25:04;;;;;;;11.77;4.20;;;;;;;;;;5069779;28;20106;-63
2022/06/13 00:27:31;;;;;;;9.93;4.32;;;;;;;;;;5068935;28;20044;-62
2022/06/13 00:29:57;;;;;;;9.73;4.03;;;;;;;;;;5060480;28;20130;-63
2022/06/13 00:32:23;;;;;;;9.82;3.78;;;;;;;;;;5066269;28;20314;-62
2022/06/13 00:34:49;;;;;;;16.85;4.85;;;;;;;;;;5037793;28;20393;-63
2022/06/13 00:37:15;;;;;;;13.30;4.03;;;;;;;;;;5058082;28;20064;-63
2022/06/13 00:39:41;;;;;;;13.60;4.80;;;;;;;;;;5036991;28;20424;-63
2022/06/13 00:42:07;;;;;;;13.38;4.32;;;;;;;;;;5048915;28;20044;-62
2022/06/13 00:44:35;;;;;;;8.68;4.15;;;;;;;;;;5061616;28;20044;-63
2022/06/13 00:47:01;;;;;;;10.05;4.90;;;;;;;;;;5069579;28;20047;-62
2022/06/13 00:49:38;;;;;;;9.85;4.28;;;;;;;;;;5060567;28;20041;-62
2022/06/13 00:52:17;;;;;;;10.93;4.72;;;;;;;;;;5065231;28;20060;-63
2022/06/13 00:54:45;;;;;;;11.88;4.22;;;;;;;;;;5055840;28;20054;-63
2022/06/13 00:57:17;;;;;;;15.32;4.47;;;;;;;;;;5066987;28;20037;-63
2022/06/13 00:59:43;;;;;;;11.82;4.63;;;;;;;;;;5063819;28;20033;-63
2022/06/13 01:02:09;;;;;;;14.18;4.95;;;;;;;;;;5065608;28;20044;-63
2022/06/13 01:04:36;;;;;;;11.43;4.07;;;;;;;;;;5065689;28;20045;-62
2022/06/13 01:07:02;;;;;;;14.55;4.30;;;;;;;;;;5068333;28;20485;-62
2022/06/13 01:12:14;;;;;;;11.90;4.65;;;;;;;;;;5070268;28;20123;-63
2022/06/13 01:14:40;;;;;;;9.93;4.38;;;;;;;;;;5069412;28;20043;-62
2022/06/13 01:17:25;;;;;;;13.43;4.70;;;;;;;;;;5066063;28;20036;-62
2022/06/13 01:20:10;;;;;;;11.40;4.40;;;;;;;;;;5067925;28;20455;-62
2022/06/13 01:22:56;;;;;;;10.40;4.43;;;;;;;;;;5055538;28;20040;-62
2022/06/13 01:25:36;;;;;;;12.55;5.22;;;;;;;;;;5058601;28;20037;-62
2022/06/13 01:28:11;;;;;;;11.87;4.70;;;;;;;;;;5058781;28;20037;-62
2022/06/13 01:30:52;;;;;;;13.60;5.05;;;;;;;;;;5059304;28;20041;-62
2022/06/13 01:33:18;;;;;;;;;;;;;;;;;;5061559;28;20044;-62
2022/06/13 01:35:53;;;;;;;10.05;4.78;;;;;;;;;;5059761;28;19927;-63
2022/06/13 01:38:39;;;;;;;11.88;5.13;;;;;;;;;;5069270;28;20036;-62
2022/06/13 01:41:13;;;;;;;13.95;5.28;;;;;;;;;;5057922;28;20041;-63
2022/06/13 01:43:42;;;;;;;12.35;5.07;;;;;;;;;;5060947;28;20076;-62
2022/06/13 01:46:08;;;;;;;13.70;5.78;;;;;;;;;;5067187;28;20036;-62
2022/06/13 01:48:42;;;;;;;16.70;5.53;;;;;;;;;;5065472;28;20055;-62
2022/06/13 01:51:11;;;;;;;14.98;5.60;;;;;;;;;;5057417;28;20463;-62
2022/06/13 01:53:40;;;;;;;14.18;4.78;;;;;;;;;;5069313;28;20036;-62
2022/06/13 01:56:06;;;;;;;12.32;5.47;;;;;;;;;;5065026;28;20509;-62
2022/06/13 01:58:48;;;;;;;12.55;5.65;;;;;;;;;;5070579;28;20037;-62
2022/06/13 02:01:17;;;;;;;13.98;5.53;;;;;;;;;;5064051;28;20405;-63
2022/06/13 02:03:46;;;;;;;17.42;5.82;;;;;;;;;;5059999;28;20037;-62
2022/06/13 02:06:19;;;;;;;9.32;5.47;;;;;;;;;;5066879;28;20044;-63
2022/06/13 02:08:52;;;;;;;11.95;5.30;;;;;;;;;;5064674;28;20036;-62
2022/06/13 02:11:22;;;;;;;15.35;6.13;;;;;;;;;;5066609;28;20045;-62
2022/06/13 02:13:51;;;;;;;13.98;6.28;;;;;;;;;;5071116;28;20572;-62
2022/06/13 02:16:23;;;;;;;15.25;5.65;;;;;;;;;;5070157;28;20040;-63
2022/06/13 02:18:53;;;;;;;12.45;6.07;;;;;;;;;;5071921;28;20040;-63
2022/06/13 02:21:21;;;;;;;14.30;6.40;;;;;;;;;;5067457;28;20575;-62
2022/06/13 02:23:51;;;;;;;13.63;5.90;;;;;;;;;;5068724;28;20044;-63
2022/06/13 02:26:20;;;;;;;13.63;6.57;;;;;;;;;;5061463;28;20051;-62
2022/06/13 02:28:55;;;;;;;12.38;6.50;;;;;;;;;;5067933;28;20052;-63
2022/06/13 02:31:34;;;;;;;14.77;6.60;;;;;;;;;;5066514;28;20482;-63
2022/06/13 02:34:03;;;;;;;14.60;6.28;;;;;;;;;;5069680;22;20135;-65
2022/06/13 02:36:38;;;;;;;13.65;6.18;;;;;;;;;;5072591;28;20410;-65
2022/06/13 02:39:10;;;;;;;16.73;6.88;;;;;;;;;;5069711;28;20037;-65
2022/06/13 02:41:40;;;;;;;12.27;5.80;;;;;;;;;;5051727;28;20098;-65
2022/06/13 02:44:08;;;;;;;11.40;5.77;;;;;;;;;;5072599;28;20209;-65
2022/06/13 02:46:34;;;;;;;10.43;5.95;;;;;;;;;;5057221;28;20059;-65
2022/06/13 02:49:05;;;;;;;13.77;6.10;;;;;;;;;;5071562;28;20071;-65
2022/06/13 02:51:33;;;;;;;12.65;5.18;;;;;;;;;;5071257;28;20040;-65
2022/06/13 02:54:00;;;;;;;11.63;5.43;;;;;;;;;;5070906;28;20037;-65
2022/06/13 02:56:26;;;;;;;13.68;5.93;;;;;;;;;;5053716;28;20401;-65
2022/06/13 02:59:04;;;;;;;17.90;6.00;;;;;;;;;;5071830;28;20032;-65
2022/06/13 03:01:49;;;;;;;15.52;6.22;;;;;;;;;;5072968;28;20044;-65
2022/06/13 03:04:19;;;;;;;15.75;6.43;;;;;;;;;;5073726;28;20048;-65
2022/06/13 03:07:00;;;;;;;10.98;5.97;;;;;;;;;;5071019;28;20052;-65
2022/06/13 03:09:37;;;;;;;15.15;6.35;;;;;;;;;;5054559;28;20040;-65
2022/06/13 03:12:05;;;;;;;13.98;6.65;;;;;;;;;;5071004;28;20043;-64
2022/06/13 03:14:34;;;;;;;17.17;6.30;;;;;;;;;;5073962;28;20064;-65
2022/06/13 03:17:06;;;;;;;14.23;6.13;;;;;;;;;;5054257;28;20144;-65
2022/06/13 03:19:42;;;;;;;13.80;6.47;;;;;;;;;;5069975;28;20302;-64
2022/06/13 03:22:13;;;;;;;18.15;6.47;;;;;;;;;;5072783;28;20232;-65
2022/06/13 03:24:39;;;;;;;13.50;6.70;;;;;;;;;;5067019;28;20094;-65
2022/06/13 03:27:08;;;;;;;12.15;5.70;;;;;;;;;;5073554;28;20423;-65
2022/06/13 03:29:46;;;;;;;14.80;6.18;;;;;;;;;;5066346;28;20047;-65
2022/06/13 03:32:15;;;;;;;16.20;6.50;;;;;;;;;;5073004;28;20044;-65
2022/06/13 03:34:43;;;;;;;15.23;6.45;;;;;;;;;;5073126;28;20036;-65
2022/06/13 03:37:15;;;;;;;11.75;6.55;;;;;;;;;;5073772;28;20046;-65
2022/06/13 03:39:44;;;;;;;13.85;6.75;;;;;;;;;;5067776;28;20037;-65
2022/06/13 03:42:17;;;;;;;14.18;6.18;;;;;;;;;;5069373;28;20460;-65
2022/06/13 03:44:49;;;;;;;16.48;6.20;;;;;;;;;;5068528;28;20036;-65
2022/06/13 03:47:18;;;;;;;12.68;6.72;;;;;;;;;;5072875;28;20076;-65
2022/06/13 03:50:06;;;;;;;16.73;7.55;;;;;;;;;;5070866;28;20055;-64
2022/06/13 03:52:35;;;;;;;14.43;6.85;;;;;;;;;;5071825;28;20040;-65
2022/06/13 03:55:05;;;;;;;13.38;7.18;;;;;;;;;;5072628;28;20380;-65
2022/06/13 03:57:35;;;;;;;15.43;7.07;;;;;;;;;;5068943;28;20155;-65
2022/06/13 04:00:08;;;;;;;16.13;7.70;;;;;;;;;;5072820;28;20040;-65
2022/06/13 04:02:35;;;;;;;15.43;7.20;;;;;;;;;;5057809;28;20041;-65
2022/06/13 04:05:01;;;;;;;17.65;7.10;;;;;;;;;;5070052;28;20076;-65
2022/06/13 04:07:30;;;;;;;16.88;7.03;;;;;;;;;;5065941;28;20064;-65
2022/06/13 04:10:01;;;;;;;15.63;7.07;;;;;;;;;;5072580;28;20036;-65
2022/06/13 04:12:45;;;;;;;17.90;7.60;;;;;;;;;;5069098;28;20041;-64
2022/06/13 04:15:14;;;;;;;16.95;8.02;;;;;;;;;;5067288;28;20119;-65
2022/06/13 04:17:46;;;;;;;15.30;7.15;;;;;;;;;;5064199;28;20071;-65
2022/06/13 04:20:33;;;;;;;16.13;6.82;;;;;;;;;;5066553;28;20044;-65
2022/06/13 04:23:08;;;;;;;16.85;7.03;;;;;;;;;;5070525;28;20516;-65
2022/06/13 04:25:53;;;;;;;14.68;7.20;;;;;;;;;;5063877;28;20095;-65
2022/06/13 04:28:39;;;;;;;18.20;7.78;;;;;;;;;;5065419;28;20032;-65
2022/06/13 04:31:06;;;;;;;18.15;7.93;;;;;;;;;;5060373;28;20048;-65
2022/06/13 04:33:39;;;;;;;17.73;7.68;;;;;;;;;;5070466;28;20040;-65
2022/06/13 04:36:10;;;;;;;12.85;6.95;;;;;;;;;;5071039;28;20067;-65
2022/06/13 04:38:36;;;;;;;17.95;7.78;;;;;;;;;;5068263;28;20055;-65
2022/06/13 04:41:04;;;;;;;19.05;8.05;;;;;;;;;;5070116;28;20041;-65
2022/06/13 04:43:36;;;;;;;17.92;7.38;;;;;;;;;;5069267;28;20048;-65
2022/06/13 04:46:11;;;;;;;17.58;7.95;;;;;;;;;;5068934;28;20043;-65
2022/06/13 04:48:38;;;;;;;15.07;7.70;;;;;;;;;;5065246;28;20094;-65
2022/06/13 04:51:12;;;;;;;16.17;8.23;;;;;;;;;;5068802;28;20041;-65
2022/06/13 04:53:41;;;;;;;16.33;8.10;;;;;;;;;;5065176;28;20028;-65
2022/06/13 04:56:07;;;;;;;17.40;7.80;;;;;;;;;;5070321;28;20035;-65
2022/06/13 04:58:35;;;;;;;20.27;8.20;;;;;;;;;;5069401;28;20036;-64
2022/06/13 05:01:20;;;;;;;21.40;8.77;;;;;;;;;;5070416;28;20036;-65
2022/06/13 05:03:47;;;;;;;18.52;8.27;;;;;;;;;;5063214;28;20145;-65
2022/06/13 05:06:20;;;;;;;23.05;7.50;;;;;;;;;;5067426;28;20045;-65
2022/06/13 05:08:52;;;;;;;18.85;7.35;;;;;;;;;;5071281;28;20127;-65
2022/06/13 05:11:28;;;;;;;18.08;6.65;;;;;;;;;;5073910;28;20039;-64
2022/06/13 05:13:59;;;;;;;16.95;6.72;;;;;;;;;;5069446;28;20646;-65
2022/06/13 05:16:31;;;;;;;15.05;7.28;;;;;;;;;;5066995;28;20039;-64
2022/06/13 05:19:06;;;;;;;19.48;6.80;;;;;;;;;;5069545;28;20067;-65
2022/06/13 05:21:50;;;;;;;16.02;5.97;;;;;;;;;;5067880;28;20040;-65
2022/06/13 05:24:16;;;;;;;14.88;6.00;;;;;;;;;;5069864;28;20525;-65
2022/06/13 05:26:42;;;;;;;14.65;6.15;;;;;;;;;;5071665;28;20040;-65
2022/06/13 05:29:11;;;;;;;15.30;5.90;;;;;;;;;;5066474;28;20111;-65
2022/06/13 05:31:37;;;;;;;11.38;5.32;;;;;;;;;;5063389;28;20067;-65
2022/06/13 05:34:05;;;;;;;10.15;4.93;;;;;;;;;;5068751;28;20525;-65
2022/06/13 05:36:31;;;;;;;14.48;5.25;;;;;;;;;;5070252;28;20032;-65
2022/06/13 05:39:02;;;;;;;10.90;5.13;;;;;;;;;;5068415;28;20033;-65
2022/06/13 05:41:28;;;;;;;12.40;4.28;;;;;;;;;;5069717;28;20152;-65
2022/06/13 05:43:54;;;;;;;11.90;4.20;;;;;;;;;;5066804;28;20044;-65
2022/06/13 05:46:27;;;;;;;12.20;4.72;;;;;;;;;;5067665;28;20071;-65
2022/06/13 05:48:53;;;;;;;9.23;4.30;;;;;;;;;;5062944;28;20071;-65
2022/06/13 05:51:19;;;;;;;10.30;3.70;;;;;;;;;;5066913;28;20051;-65
2022/06/13 05:53:45;;;;;;;11.57;3.97;;;;;;;;;;5070617;28;20041;-65
2022/06/13 05:56:12;;;;;;;10.25;4.07;;;;;;;;;;5069608;28;20394;-65
2022/06/13 05:58:38;;;;;;;12.40;3.63;;;;;;;;;;5058258;28;20043;-65
2022/06/13 06:01:05;;;;;;;11.95;3.70;;;;;;;;;;5067742;28;20044;-65
2022/06/13 06:03:32;;;;;;;6.57;3.05;;;;;;;;;;5070604;28;20068;-65
2022/06/13 06:05:58;;;;;;;11.18;3.83;;;;;;;;;;5063416;28;20036;-65
2022/06/13 06:08:26;;;;;;;11.32;3.33;;;;;;;;;;5060187;28;20032;-65
2022/06/13 06:10:53;;;;;;;8.68;3.47;;;;;;;;;;5062724;28;20043;-65
2022/06/13 06:13:19;;;;;;;9.13;3.22;;;;;;;;;;5067246;28;20094;-65
2022/06/13 06:15:46;;;;;;;12.18;3.70;;;;;;;;;;5063810;28;20044;-64
2022/06/13 06:18:13;;;;;;;10.20;2.78;;;;;;;;;;5068915;28;20028;-65
2022/06/13 06:20:39;;;;;;;7.15;2.92;;;;;;;;;;5064119;28;20478;-64
2022/06/13 06:23:05;;;;;;;10.05;3.10;;;;;;;;;;5069704;28;20050;-65
2022/06/13 06:25:32;;;;;;;6.53;2.47;;;;;;;;;;5068414;28;20111;-65
2022/06/13 06:27:58;;;;;;;6.10;2.67;;;;;;;;;;5067710;28;20036;-65
2022/06/13 06:30:27;;;;;;;7.63;2.53;;;;;;;;;;5068894;28;20032;-65
2022/06/13 06:32:53;;;;;;;7.95;2.53;;;;;;;;;;5069512;28;20094;-64
2022/06/13 06:35:20;;;;;;;8.55;2.65;;;;;;;;;;5068230;28;20139;-65
2022/06/13 06:37:47;;;;;;;5.25;2.40;;;;;;;;;;5049278;28;20504;-65
2022/06/13 06:40:13;;;;;;;5.60;2.15;;;;;;;;;;5066663;28;20078;-65
2022/06/13 06:42:39;;;;;;;6.90;2.30;;;;;;;;;;5065232;28;20043;-65
2022/06/13 06:45:06;;;;;;;6.53;2.10;;;;;;;;;;5049963;28;20048;-65
2022/06/13 06:47:32;;;;;;;9.60;2.50;;;;;;;;;;5048339;28;20393;-65
2022/06/13 06:49:58;;;;;;;9.73;2.38;;;;;;;;;;5048807;28;20051;-65
2022/06/13 06:52:24;;;;;;;8.52;2.72;;;;;;;;;;5072502;28;20176;-65
2022/06/13 07:00:20;;;;;;;6.50;2.10;;;;;;;;;;5069022;28;20064;-65
2022/06/13 07:02:46;;;;;;;7.05;2.22;;;;;;;;;;5068390;28;20051;-64
2022/06/13 07:05:13;;;;;;;7.70;1.60;;;;;;;;;;5051442;28;20131;-65
2022/06/13 07:07:39;;;;;;;5.30;2.30;;;;;;;;;;5051062;28;20481;-64
2022/06/13 07:10:07;;;;;;;6.90;2.00;;;;;;;;;;5065068;28;20486;-64
2022/06/13 07:12:33;;;;;;;9.80;2.00;;;;;;;;;;5070340;28;20401;-65
2022/06/13 07:14:59;;;;;;;8.68;1.85;;;;;;;;;;5065099;28;20048;-65
2022/06/13 07:17:28;;;;;;;3.88;1.58;;;;;;;;;;5068815;28;20604;-65
2022/06/13 07:19:54;;;;;;;5.03;1.30;;;;;;;;;;5067789;28;20136;-65
2022/06/13 07:22:23;;;;;;;7.28;1.52;;;;;;;;;;5067397;28;20044;-65
2022/06/13 07:24:49;;;;;;;7.60;1.73;;;;;;;;;;5067804;28;20397;-65
2022/06/13 07:27:16;;;;;;;4.95;1.50;;;;;;;;;;5068514;28;20044;-64
2022/06/13 07:29:42;;;;;;;4.63;1.90;;;;;;;;;;5065028;28;20303;-64
2022/06/13 07:32:11;;;;;;;4.72;1.38;;;;;;;;;;5070652;28;20559;-65
2022/06/13 07:34:37;;;;;;;2.60;1.00;;;;;;;;;;5067424;28;20047;-65
2022/06/13 07:37:04;;;;;;;1.40;0.75;;;;;;;;;;5066245;28;20035;-65
2022/06/13 07:39:30;;;;;;;5.78;0.82;;;;;;;;;;5067790;28;20154;-66
2022/06/13 07:41:57;;;;;;;3.30;0.68;;;;;;;;;;5075291;28;20032;-66
2022/06/13 07:44:32;;;;;;;1.30;0.60;;;;;;;;;;5070274;28;20051;-66
2022/06/13 07:46:59;;;;;;;3.15;0.60;;;;;;;;;;5073863;28;20044;-66
2022/06/13 07:49:25;;;;;;;1.58;0.90;;;;;;;;;;5069183;28;20050;-66
2022/06/13 07:51:51;;;;;;;2.30;0.90;;;;;;;;;;5052677;28;20048;-66
2022/06/13 07:54:17;;;;;;;1.58;0.70;;;;;;;;;;5070368;28;20098;-66
2022/06/13 07:56:44;;;;;;;2.33;0.70;;;;;;;;;;5075200;28;20036;-65
2022/06/13 07:59:14;;;;;;;3.53;0.90;;;;;;;;;;5076318;28;20082;-65
2022/06/13 08:01:40;;;;;;;3.80;1.20;;;;;;;;;;5067776;28;20037;-66
2022/06/13 08:04:06;;;;;;;3.88;1.30;;;;;;;;;;5071604;28;20082;-65
2022/06/13 08:06:32;;;;;;;2.30;1.27;;;;;;;;;;5066871;28;20515;-65
2022/06/13 08:08:58;;;;;;;5.15;1.40;;;;;;;;;;5061674;28;20044;-66
2022/06/13 08:11:33;;;;;;;4.25;1.23;;;;;;;;;;5067622;28;20410;-65
2022/06/13 08:13:59;;;;;;;2.78;1.30;;;;;;;;;;5077113;28;20048;-66
2022/06/13 08:16:25;;;;;;;4.97;1.25;;;;;;;;;;5068235;28;20043;-65
2022/06/13 08:18:51;;;;;;;4.60;1.20;;;;;;;;;;5063311;28;20044;-66
2022/06/13 08:21:17;;;;;;;6.53;1.40;;;;;;;;;;5061240;28;20063;-65
2022/06/13 08:23:44;;;;;;;2.97;1.27;;;;;;;;;;5049123;28;20101;-65
2022/06/13 08:26:10;;;;;;;5.35;1.42;;;;;;;;;;5057165;28;20079;-65
2022/06/13 08:28:36;;;;;;;3.30;1.17;;;;;;;;;;5069040;28;20044;-65
2022/06/13 08:31:07;;;;;;;3.90;1.30;;;;;;;;;;5061921;28;20037;-65
2022/06/13 08:33:33;;;;;;;7.25;1.60;;;;;;;;;;5063229;22;20048;-64
2022/06/13 08:35:59;;;;;;;3.65;1.27;;;;;;;;;;5063438;28;20045;-64
2022/06/13 08:38:26;;;;;;;6.63;1.45;;;;;;;;;;5069514;28;20416;-64
2022/06/13 08:41:01;;;;;;;3.83;1.48;;;;;;;;;;5070432;28;20036;-63
2022/06/13 08:43:35;;;;;;;4.85;1.60;;;;;;;;;;5070310;28;20310;-63
2022/06/13 08:46:20;;;;;;;2.08;0.90;;;;;;;;;;5066536;28;20044;-64
2022/06/13 08:48:46;;;;;;;6.93;1.88;;;;;;;;;;5066505;28;20044;-63
2022/06/13 08:51:14;;;;;;;5.25;1.23;;;;;;;;;;5065171;28;20053;-63
2022/06/13 08:53:45;;;;;;;6.03;1.30;;;;;;;;;;5067592;28;20056;-63
2022/06/13 08:56:13;;;;;;;6.18;1.40;;;;;;;;;;5066571;28;20642;-63
2022/06/13 08:58:39;;;;;;;4.80;1.25;;;;;;;;;;5064400;28;20119;-63
2022/06/13 09:01:10;;;;;;;5.38;1.33;;;;;;;;;;5069165;28;20439;-64
2022/06/13 09:03:36;;;;;;;4.47;1.45;;;;;;;;;;5063863;28;20032;-63
2022/06/13 09:06:14;;;;;;;3.33;1.33;;;;;;;;;;5067922;28;20201;-63
2022/06/13 09:08:48;;;;;;;6.57;1.38;;;;;;;;;;5077888;28;20044;-63
2022/06/13 09:11:40;;;;;;;5.28;1.27;;;;;;;;;;5069019;28;20036;-64
2022/06/13 09:14:07;;;;;;;6.28;1.33;;;;;;;;;;5070539;28;20097;-63
2022/06/13 09:16:35;;;;;;;4.13;1.00;;;;;;;;;;5068186;28;20059;-63
2022/06/13 09:19:13;;;;;;;5.20;1.20;;;;;;;;;;5052186;28;20093;-63
2022/06/13 09:21:42;;;;;;;3.95;1.00;;;;;;;;;;5064005;28;20119;-63
2022/06/13 09:24:15;;;;;;;3.70;0.90;;;;;;;;;;5064491;28;20078;-63
2022/06/13 09:26:48;;;;;;;3.97;1.10;;;;;;;;;;5069118;28;20501;-63
2022/06/13 09:29:14;;;;;;;2.33;1.10;;;;;;;;;;5067779;28;20497;-63
2022/06/13 09:35:09;;;;;;;7.35;1.20;;;;;;;;;;5065463;28;20039;-63
2022/06/13 09:37:35;;;;;;;6.97;1.98;;;;;;;;;;5058274;28;20483;-63
2022/06/13 09:40:01;;;;;;;6.53;1.30;;;;;;;;;;5062813;28;20047;-64
2022/06/13 09:42:36;;;;;;;5.13;1.30;;;;;;;;;;5068232;28;20067;-63
2022/06/13 09:45:23;;;;;;;4.93;1.15;;;;;;;;;;5064886;28;20032;-63
2022/06/13 09:48:06;;;;;;;5.68;1.15;;;;;;;;;;5063603;28;20090;-63
2022/06/13 09:50:37;;;;;;;6.63;1.30;;;;;;;;;;5063652;28;20492;-63
2022/06/13 09:53:17;;;;;;;3.17;0.80;;;;;;;;;;5072868;28;20040;-63
2022/06/13 09:55:49;;;;;;;4.88;1.30;;;;;;;;;;5060127;28;20033;-63
2022/06/13 09:58:35;;;;;;;2.75;1.10;;;;;;;;;;5070388;28;20048;-63
2022/06/13 10:01:01;;;;;;;5.68;1.02;;;;;;;;;;5065376;28;20379;-63
2022/06/13 10:03:46;;;;;;;4.45;1.00;;;;;;;;;;5068525;28;20078;-63
2022/06/13 10:06:20;;;;;;;5.70;0.90;;;;;;;;;;5066699;28;20036;-64
2022/06/13 10:08:55;;;;;;;7.75;1.38;;;;;;;;;;5071035;28;20103;-63
2022/06/13 10:11:24;;;;;;;5.05;1.10;;;;;;;;;;5065760;28;20406;-63
2022/06/13 10:14:09;;;;;;;3.85;1.23;;;;;;;;;;5062615;28;20041;-63
2022/06/13 10:16:53;;;;;;;4.18;1.10;;;;;;;;;;5063378;28;20059;-63
2022/06/13 10:19:19;;;;;;;6.13;1.20;;;;;;;;;;5062244;28;20048;-63
2022/06/13 10:21:49;;;;;;;3.85;1.05;;;;;;;;;;5067405;28;20066;-63
2022/06/13 10:24:15;;;;;;;3.38;1.08;;;;;;;;;;5068029;28;20435;-64
2022/06/13 10:26:41;;;;;;;5.82;1.10;;;;;;;;;;5070627;28;20040;-63
2022/06/13 10:29:10;;;;;;;5.45;0.90;;;;;;;;;;5053711;28;20047;-63
2022/06/13 10:31:42;;;;;;;7.18;1.25;;;;;;;;;;5073040;28;20041;-63
2022/06/13 10:34:17;;;;;;;5.85;1.10;;;;;;;;;;5072555;28;20033;-63
2022/06/13 10:36:56;;;;;;;3.15;0.90;;;;;;;;;;5055091;28;20045;-63
2022/06/13 10:39:25;;;;;;;3.08;0.90;;;;;;;;;;5073086;28;20032;-63
2022/06/13 10:41:53;;;;;;;3.90;1.27;;;;;;;;;;5073897;28;20051;-64
2022/06/13 10:44:19;;;;;;;5.50;1.08;;;;;;;;;;5073019;28;20041;-64
2022/06/13 10:46:48;;;;;;;3.95;0.93;;;;;;;;;;5052422;28;20981;-64
2022/06/13 10:49:18;;;;;;;6.38;1.13;;;;;;;;;;5074603;28;20056;-64
2022/06/13 10:51:44;;;;;;;7.20;1.40;;;;;;;;;;5071288;28;20047;-64
2022/06/13 10:54:13;;;;;;;5.03;1.40;;;;;;;;;;5047838;28;20041;-63
2022/06/13 10:56:41;;;;;;;3.72;1.15;;;;;;;;;;5056809;28;20048;-63
2022/06/13 10:59:20;;;;;;;5.18;1.15;;;;;;;;;;5083181;28;20181;-63
2022/06/13 11:02:00;;;;;;;5.90;1.33;;;;;;;;;;5067184;28;20040;-63
2022/06/13 11:04:26;;;;;;;4.18;0.90;;;;;;;;;;5063913;28;20529;-63
2022/06/13 11:06:54;;;;;;;5.60;1.10;;;;;;;;;;5067635;28;20052;-63
2022/06/13 11:09:23;;;;;;;7.47;1.10;;;;;;;;;;5073736;28;20041;-63
2022/06/13 11:11:53;;;;;;;4.43;1.00;;;;;;;;;;5074174;28;20036;-63
2022/06/13 11:14:27;;;;;;;5.00;1.03;;;;;;;;;;5073526;28;20059;-63
2022/06/13 11:22:45;;;;;;;7.20;1.15;;;;;;;;;;5072136;28;20064;-63
2022/06/13 11:25:19;;;;;;;7.07;1.40;;;;;;;;;;5068200;28;20549;-63
2022/06/13 11:27:47;;;;;;;6.85;1.52;;;;;;;;;;5072882;28;20115;-63
2022/06/13 11:30:19;;;;;;;10.10;1.92;;;;;;;;;;5077514;28;20036;-63
2022/06/13 11:33:03;;;;;;;4.93;1.48;;;;;;;;;;5072474;28;20074;-63
2022/06/13 11:35:29;;;;;;;6.70;1.13;;;;;;;;;;5055663;28;20040;-63
2022/06/13 11:37:55;;;;;;;6.07;1.10;;;;;;;;;;5073325;28;20099;-63
2022/06/13 11:40:26;;;;;;;6.13;1.60;;;;;;;;;;5061336;28;20039;-63
2022/06/13 11:42:52;;;;;;;5.97;1.50;;;;;;;;;;5071190;28;20040;-63
2022/06/13 11:45:23;;;;;;;6.38;1.50;;;;;;;;;;5076794;28;20120;-63
2022/06/13 11:47:49;;;;;;;;;;;;;;;;;;5073016;28;20037;-63
2022/06/13 11:50:18;;;;;;;6.80;1.50;;;;;;;;;;5072980;28;19920;-63
2022/06/13 11:55:30;;;;;;;5.72;1.27;;;;;;;;;;5072774;28;20606;-63
2022/06/13 11:57:57;;;;;;;5.32;1.40;;;;;;;;;;5071056;28;20414;-63
2022/06/13 12:00:35;;;;;;;5.75;1.50;;;;;;;;;;5063721;28;20049;-63
2022/06/13 12:03:07;;;;;;;7.40;1.33;;;;;;;;;;5068338;28;20501;-63
2022/06/13 12:05:33;;;;;;;3.58;0.98;;;;;;;;;;5069156;28;20072;-63
2022/06/13 12:08:19;;;;;;;6.38;1.23;;;;;;;;;;5056949;28;20044;-63
2022/06/13 12:10:54;;;;;;;4.80;1.65;;;;;;;;;;5070430;28;20048;-63
2022/06/13 12:13:22;;;;;;;4.57;1.40;;;;;;;;;;5060387;28;20392;-63
2022/06/13 12:15:51;;;;;;;4.43;1.20;;;;;;;;;;5067348;28;20037;-62
2022/06/13 12:18:23;;;;;;;5.40;1.20;;;;;;;;;;5072788;28;20029;-63
2022/06/13 12:21:10;;;;;;;11.30;1.58;;;;;;;;;;5071220;28;20086;-63
2022/06/13 12:23:52;;;;;;;6.68;1.20;;;;;;;;;;5054089;28;20456;-63
2022/06/13 12:26:36;;;;;;;5.68;1.20;;;;;;;;;;5072783;28;20054;-63
2022/06/13 12:29:17;;;;;;;5.03;1.23;;;;;;;;;;5067217;28;20044;-63
2022/06/13 12:32:00;;;;;;;9.63;1.40;;;;;;;;;;5071025;28;20036;-63
2022/06/13 12:34:32;;;;;;;4.30;1.20;;;;;;;;;;5065922;28;20038;-63
2022/06/13 12:37:08;;;;;;;10.27;1.35;;;;;;;;;;5066186;28;20059;-63
2022/06/13 12:39:42;;;;;;;7.88;1.35;;;;;;;;;;5069968;28;20041;-63
2022/06/13 12:42:32;;;;;;;6.13;1.20;;;;;;;;;;5066452;28;20402;-63
2022/06/13 12:45:08;;;;;;;6.88;1.38;;;;;;;;;;5062539;28;20044;-62
2022/06/13 12:47:52;;;;;;;5.90;1.40;;;;;;;;;;5060746;28;20505;-63
2022/06/13 12:50:37;;;;;;;6.65;1.92;;;;;;;;;;5068486;28;20061;-63
2022/06/13 12:56:16;;;;;;;5.30;1.58;;;;;;;;;;5066390;28;20541;-63
2022/06/13 12:59:01;;;;;;;6.05;1.27;;;;;;;;;;5069157;28;20490;-64
2022/06/13 13:01:38;;;;;;;6.45;1.30;;;;;;;;;;5070513;28;20039;-65
2022/06/13 13:04:07;;;;;;;5.50;1.35;;;;;;;;;;5070727;28;20047;-64
2022/06/13 13:06:52;;;;;;;5.82;1.33;;;;;;;;;;5066676;28;20037;-64
2022/06/13 13:09:36;;;;;;;7.88;1.40;;;;;;;;;;5067923;28;20047;-63
2022/06/13 13:12:21;;;;;;;4.55;1.30;;;;;;;;;;5055000;28;20048;-64
2022/06/13 13:14:55;;;;;;;9.07;1.33;;;;;;;;;;5062011;28;20044;-64
2022/06/13 13:17:25;;;;;;;6.95;1.45;;;;;;;;;;5069195;28;20040;-63
2022/06/13 13:19:59;;;;;;;7.22;1.65;;;;;;;;;;5059217;28;20036;-63
2022/06/13 13:22:33;;;;;;;5.18;1.17;;;;;;;;;;5075523;28;20032;-64
2022/06/13 13:25:09;;;;;;;8.63;1.60;;;;;;;;;;5074378;28;20128;-64
2022/06/13 13:27:41;;;;;;;6.68;1.42;;;;;;;;;;5052775;28;20040;-63
2022/06/13 13:30:26;;;;;;;8.95;1.75;;;;;;;;;;5053157;28;20083;-63
2022/06/13 13:33:02;;;;;;;6.05;1.38;;;;;;;;;;5070188;28;20047;-63
2022/06/13 13:35:43;;;;;;;7.50;1.50;;;;;;;;;;5061975;28;20041;-63
2022/06/13 13:38:24;;;;;;;7.53;1.52;;;;;;;;;;5065103;28;20127;-63
2022/06/13 13:40:53;;;;;;;3.08;1.08;;;;;;;;;;5070085;28;20131;-63
2022/06/13 13:43:38;;;;;;;6.60;1.60;;;;;;;;;;5053743;28;20044;-63
2022/06/13 13:46:22;;;;;;;7.43;1.73;;;;;;;;;;5069795;28;20055;-64
2022/06/13 13:48:52;;;;;;;4.18;1.00;;;;;;;;;;5047604;28;20052;-63
2022/06/13 13:51:22;;;;;;;9.18;1.45;;;;;;;;;;5067915;28;20041;-63
2022/06/13 13:54:12;;;;;;;7.30;1.63;;;;;;;;;;5068864;28;20037;-63
2022/06/13 13:56:40;;;;;;;4.82;1.33;;;;;;;;;;5054217;28;20059;-63
2022/06/13 13:59:06;;;;;;;6.00;1.48;;;;;;;;;;5072080;28;20051;-63
2022/06/13 14:02:01;;;;;;;6.28;1.40;;;;;;;;;;5074768;28;20161;-63
2022/06/13 14:04:27;;;;;;;5.43;1.20;;;;;;;;;;5014798;28;20049;-62
2022/06/13 14:07:05;;;;;;;6.78;1.15;;;;;;;;;;5071013;28;20670;-62
2022/06/13 14:09:32;;;;;;;5.53;1.60;;;;;;;;;;5073607;28;20043;-62
2022/06/13 14:11:59;;;;;;;6.18;1.45;;;;;;;;;;5071690;28;20049;-62
2022/06/13 14:14:27;;;;;;;4.47;1.30;;;;;;;;;;5072897;28;20036;-62
2022/06/13 14:16:54;;;;;;;4.90;1.30;;;;;;;;;;5066198;28;20569;-63
2022/06/13 14:19:31;;;;;;;5.70;1.40;;;;;;;;;;5066329;28;21102;-63
2022/06/13 14:22:12;;;;;;;6.95;1.60;;;;;;;;;;5052342;28;20080;-63
2022/06/13 14:24:45;;;;;;;8.77;1.60;;;;;;;;;;5067955;28;20056;-62
2022/06/13 14:27:11;;;;;;;6.30;1.77;;;;;;;;;;5072691;28;20799;-63
2022/06/13 14:29:42;;;;;;;8.57;1.63;;;;;;;;;;5071944;28;20036;-63
2022/06/13 14:32:16;;;;;;;7.15;1.70;;;;;;;;;;5066734;28;20036;-63
2022/06/13 14:37:27;;;;;;;6.13;1.58;;;;;;;;;;5051579;28;20041;-63
2022/06/13 14:40:05;;;;;;;7.55;1.40;;;;;;;;;;5051179;28;20065;-63
2022/06/13 14:42:38;;;;;;;5.63;1.55;;;;;;;;;;5048565;28;20167;-64
2022/06/13 14:45:10;;;;;;;6.75;1.40;;;;;;;;;;5049102;28;20056;-63
2022/06/13 14:47:45;;;;;;;10.65;1.70;;;;;;;;;;5045974;28;20048;-63
2022/06/13 14:50:11;;;;;;;6.80;1.50;;;;;;;;;;5047817;28;20037;-63
2022/06/13 14:52:37;;;;;;;7.97;1.38;;;;;;;;;;5054095;28;20033;-64
2022/06/13 14:55:03;;;;;;;9.55;1.40;;;;;;;;;;5054240;28;20048;-64
2022/06/13 14:57:29;;;;;;;10.13;2.05;;;;;;;;;;5030112;28;20557;-63
2022/06/13 15:00:05;;;;;;;5.60;1.33;;;;;;;;;;5044898;28;20406;-64
2022/06/13 15:02:41;;;;;;;6.53;1.70;;;;;;;;;;5047100;28;20041;-63
2022/06/13 15:05:08;;;;;;;7.18;1.50;;;;;;;;;;5043262;28;20045;-63
2022/06/13 15:07:40;;;;;;;7.43;1.40;;;;;;;;;;5043521;28;20041;-63
2022/06/13 15:10:11;;;;;;;6.53;1.40;;;;;;;;;;5026004;28;20127;-63
2022/06/13 15:12:38;;;;;;;7.15;1.80;;;;;;;;;;5041422;28;20041;-63
2022/06/13 15:15:20;;;;;;;7.32;1.63;;;;;;;;;;5045390;28;20055;-63
2022/06/13 15:17:47;;;;;;;6.18;1.55;;;;;;;;;;5041707;28;20080;-63
2022/06/13 15:20:16;;;;;;;4.00;1.25;;;;;;;;;;5044841;28;20040;-63
2022/06/13 15:22:48;;;;;;;5.03;1.33;;;;;;;;;;5042725;28;20070;-63
2022/06/13 15:25:15;;;;;;;5.55;1.42;;;;;;;;;;5040757;28;20045;-63
2022/06/13 15:27:49;;;;;;;5.15;1.00;;;;;;;;;;5026930;28;20041;-64